East Point, Georgia
Current Conditions -  °F | °C
As of 4:52 AM on Friday 19 Dec 2014 (Local Time) from KATL Reporting Station
Scattered Clouds Scattered Clouds  
Wind Chill: 32°   Ceiling: Unl
Heat Index: 38°   Visibility: 10mi
Dew Point: 32°   Wind: 8mph
Humidity: 79%   Direction: 310°NW
Pressure: 30.11"   Gusts: NA
Location:  33.68°N, 84.44°W
Report Text: KATL 190952Z 31007KT 10SM FEW200 SCT250 03/00 A3011 RMK AO2 SLP200 T00330000
Loading
Personal Weather Stations






























Interactive Weather Map New forecast layout! Learn more

10-Day Weather Forecast

Advertisements
Track Severe Weather on mobile